sensor_id;sensor_type;location;lat;lon;timestamp;pressure;altitude;pressure_sealevel;temperature;humidity
58955;BME280;45815;52.334;5.024;2022-11-28T00:01:05;100988.25;;;7.15;100.00
58955;BME280;45815;52.334;5.024;2022-11-28T00:03:30;100980.38;;;7.13;100.00
58955;BME280;45815;52.334;5.024;2022-11-28T00:05:56;100980.19;;;7.07;100.00
58955;BME280;45815;52.334;5.024;2022-11-28T00:08:21;100979.31;;;7.08;100.00
58955;BME280;45815;52.334;5.024;2022-11-28T00:10:46;100982.00;;;7.10;100.00
58955;BME280;45815;52.334;5.024;2022-11-28T00:13:12;100980.38;;;7.13;100.00
58955;BME280;45815;52.334;5.024;2022-11-28T00:15:38;100976.97;;;7.16;100.00
58955;BME280;45815;52.334;5.024;2022-11-28T00:18:03;100976.25;;;7.20;100.00
58955;BME280;45815;52.334;5.024;2022-11-28T00:20:31;100972.88;;;7.23;100.00
58955;BME280;45815;52.334;5.024;2022-11-28T00:22:56;100959.66;;;7.18;100.00
58955;BME280;45815;52.334;5.024;2022-11-28T00:25:22;100977.34;;;7.27;100.00
58955;BME280;45815;52.334;5.024;2022-11-28T00:27:47;100966.03;;;7.26;100.00
58955;BME280;45815;52.334;5.024;2022-11-28T00:30:13;100963.47;;;7.28;100.00
58955;BME280;45815;52.334;5.024;2022-11-28T00:32:38;100957.41;;;7.29;100.00
58955;BME280;45815;52.334;5.024;2022-11-28T00:35:04;100952.22;;;7.30;100.00
58955;BME280;45815;52.334;5.024;2022-11-28T00:37:29;100951.47;;;7.33;100.00
58955;BME280;45815;52.334;5.024;2022-11-28T00:39:55;100949.78;;;7.35;100.00
58955;BME280;45815;52.334;5.024;2022-11-28T00:42:20;100955.91;;;7.35;100.00
58955;BME280;45815;52.334;5.024;2022-11-28T00:44:47;100955.13;;;7.38;100.00
58955;BME280;45815;52.334;5.024;2022-11-28T00:47:13;100938.41;;;7.33;100.00
58955;BME280;45815;52.334;5.024;2022-11-28T00:49:39;100956.22;;;7.45;100.00
58955;BME280;45815;52.334;5.024;2022-11-28T00:52:04;100952.75;;;7.46;100.00
58955;BME280;45815;52.334;5.024;2022-11-28T00:54:30;100946.66;;;7.45;100.00
58955;BME280;45815;52.334;5.024;2022-11-28T00:56:55;100948.38;;;7.45;100.00
58955;BME280;45815;52.334;5.024;2022-11-28T00:59:20;100934.31;;;7.41;100.00
58955;BME280;45815;52.334;5.024;2022-11-28T01:01:46;100942.06;;;7.38;100.00
58955;BME280;45815;52.334;5.024;2022-11-28T01:04:13;100933.38;;;7.39;100.00
58955;BME280;45815;52.334;5.024;2022-11-28T01:06:44;100918.50;;;7.36;100.00
58955;BME280;45815;52.334;5.024;2022-11-28T01:09:14;100915.09;;;7.39;100.00
58955;BME280;45815;52.334;5.024;2022-11-28T01:11:41;100911.69;;;7.42;100.00
58955;BME280;45815;52.334;5.024;2022-11-28T01:14:07;100905.34;;;7.33;100.00
58955;BME280;45815;52.334;5.024;2022-11-28T01:16:33;100915.06;;;7.37;100.00
58955;BME280;45815;52.334;5.024;2022-11-28T01:18:58;100911.69;;;7.40;100.00
58955;BME280;45815;52.334;5.024;2022-11-28T01:21:24;100910.81;;;7.41;100.00
58955;BME280;45815;52.334;5.024;2022-11-28T01:23:49;100900.31;;;7.39;100.00
58955;BME280;45815;52.334;5.024;2022-11-28T01:26:26;100903.88;;;7.42;100.00
58955;BME280;45815;52.334;5.024;2022-11-28T01:28:53;100904.91;;;7.47;100.00
58955;BME280;45815;52.334;5.024;2022-11-28T01:31:21;100904.97;;;7.48;100.00
58955;BME280;45815;52.334;5.024;2022-11-28T01:33:47;100898.84;;;7.48;100.00
58955;BME280;45815;52.334;5.024;2022-11-28T01:36:13;100890.81;;;7.42;100.00
58955;BME280;45815;52.334;5.024;2022-11-28T01:38:39;100904.88;;;7.45;100.00
58955;BME280;45815;52.334;5.024;2022-11-28T01:41:06;100900.53;;;7.46;100.00
58955;BME280;45815;52.334;5.024;2022-11-28T01:43:32;100905.75;;;7.46;100.00
58955;BME280;45815;52.334;5.024;2022-11-28T01:45:57;100901.47;;;7.48;100.00
58955;BME280;45815;52.334;5.024;2022-11-28T01:48:29;100884.84;;;7.46;100.00
58955;BME280;45815;52.334;5.024;2022-11-28T01:51:04;100905.81;;;7.47;100.00
58955;BME280;45815;52.334;5.024;2022-11-28T01:53:32;100901.47;;;7.48;100.00
58955;BME280;45815;52.334;5.024;2022-11-28T01:56:05;100900.44;;;7.43;100.00
58955;BME280;45815;52.334;5.024;2022-11-28T01:58:33;100882.97;;;7.42;100.00
58955;BME280;45815;52.334;5.024;2022-11-28T02:01:01;100903.28;;;7.50;100.00
58955;BME280;45815;52.334;5.024;2022-11-28T02:03:33;100901.53;;;7.49;100.00
58955;BME280;45815;52.334;5.024;2022-11-28T02:06:00;100895.44;;;7.50;100.00
58955;BME280;45815;52.334;5.024;2022-11-28T02:08:26;100902.19;;;7.44;100.00
58955;BME280;45815;52.334;5.024;2022-11-28T02:22:06;100881.59;;;7.53;100.00
58955;BME280;45815;52.334;5.024;2022-11-28T02:30:16;100873.81;;;7.54;100.00
58955;BME280;45815;52.334;5.024;2022-11-28T02:32:58;100867.72;;;7.54;100.00
58955;BME280;45815;52.334;5.024;2022-11-28T02:38:41;100875.69;;;7.58;100.00
58955;BME280;45815;52.334;5.024;2022-11-28T02:43:56;100874.91;;;7.61;100.00
58955;BME280;45815;52.334;5.024;2022-11-28T02:46:54;100888.84;;;7.61;100.00
58955;BME280;45815;52.334;5.024;2022-11-28T02:49:40;100888.88;;;7.63;100.00
58955;BME280;45815;52.334;5.024;2022-11-28T02:52:16;100880.13;;;7.61;100.00
58955;BME280;45815;52.334;5.024;2022-11-28T02:54:43;100889.88;;;7.67;100.00
58955;BME280;45815;52.334;5.024;2022-11-28T02:57:10;100883.13;;;7.73;100.00
58955;BME280;45815;52.334;5.024;2022-11-28T03:02:02;100884.16;;;7.78;100.00
58955;BME280;45815;52.334;5.024;2022-11-28T03:14:59;100882.56;;;7.83;100.00
58955;BME280;45815;52.334;5.024;2022-11-28T03:33:07;100877.69;;;7.96;100.00
58955;BME280;45815;52.334;5.024;2022-11-28T03:35:36;100876.03;;;7.98;100.00
58955;BME280;45815;52.334;5.024;2022-11-28T03:38:16;100878.56;;;7.95;100.00
58955;BME280;45815;52.334;5.024;2022-11-28T03:40:49;100878.63;;;7.96;100.00
58955;BME280;45815;52.334;5.024;2022-11-28T03:43:19;100862.69;;;7.89;100.00
58955;BME280;45815;52.334;5.024;2022-11-28T03:45:48;100873.47;;;7.99;100.00
58955;BME280;45815;52.334;5.024;2022-11-28T03:48:20;100874.31;;;7.98;100.00
58955;BME280;45815;52.334;5.024;2022-11-28T03:50:52;100877.00;;;8.01;100.00
58955;BME280;45815;52.334;5.024;2022-11-28T03:53:26;100884.91;;;8.03;100.00
58955;BME280;45815;52.334;5.024;2022-11-28T03:56:11;100859.31;;;7.93;100.00
58955;BME280;45815;52.334;5.024;2022-11-28T04:01:33;100880.66;;;8.07;100.00
58955;BME280;45815;52.334;5.024;2022-11-28T04:06:57;100884.19;;;8.09;100.00
58955;BME280;45815;52.334;5.024;2022-11-28T04:10:03;100884.00;;;8.02;100.00
58955;BME280;45815;52.334;5.024;2022-11-28T04:12:52;100890.97;;;8.02;100.00
58955;BME280;45815;52.334;5.024;2022-11-28T04:15:47;100885.75;;;8.02;100.00
58955;BME280;45815;52.334;5.024;2022-11-28T04:18:24;100879.75;;;8.06;100.00
58955;BME280;45815;52.334;5.024;2022-11-28T04:23:20;100877.22;;;8.09;100.00
58955;BME280;45815;52.334;5.024;2022-11-28T04:25:54;100880.78;;;8.11;100.00
58955;BME280;45815;52.334;5.024;2022-11-28T04:28:23;100888.44;;;8.05;100.00
58955;BME280;45815;52.334;5.024;2022-11-28T04:30:51;100886.75;;;8.07;100.00
58955;BME280;45815;52.334;5.024;2022-11-28T04:33:20;100892.97;;;8.11;100.00
58955;BME280;45815;52.334;5.024;2022-11-28T04:35:50;100892.97;;;8.11;100.00
58955;BME280;45815;52.334;5.024;2022-11-28T04:38:18;100895.63;;;8.12;100.00
58955;BME280;45815;52.334;5.024;2022-11-28T04:40:52;100893.78;;;8.08;100.00
58955;BME280;45815;52.334;5.024;2022-11-28T04:43:23;100900.81;;;8.11;100.00
58955;BME280;45815;52.334;5.024;2022-11-28T04:45:58;100896.34;;;8.07;100.00
58955;BME280;45815;52.334;5.024;2022-11-28T04:48:25;100902.56;;;8.10;100.00
58955;BME280;45815;52.334;5.024;2022-11-28T04:50:58;100901.75;;;8.13;100.00
58955;BME280;45815;52.334;5.024;2022-11-28T04:53:34;100901.78;;;8.14;100.00
58955;BME280;45815;52.334;5.024;2022-11-28T04:56:06;100898.22;;;8.11;100.00
58955;BME280;45815;52.334;5.024;2022-11-28T04:58:37;100903.59;;;8.17;100.00
58955;BME280;45815;52.334;5.024;2022-11-28T05:01:06;100900.91;;;8.14;100.00
58955;BME280;45815;52.334;5.024;2022-11-28T05:03:34;100902.63;;;8.13;100.00
58955;BME280;45815;52.334;5.024;2022-11-28T05:06:00;100904.31;;;8.11;100.00
58955;BME280;45815;52.334;5.024;2022-11-28T05:08:27;100902.63;;;8.13;100.00
58955;BME280;45815;52.334;5.024;2022-11-28T05:10:53;100901.69;;;8.11;100.00
58955;BME280;45815;52.334;5.024;2022-11-28T05:13:18;100912.16;;;8.11;100.00
58955;BME280;45815;52.334;5.024;2022-11-28T05:15:44;100907.88;;;8.13;100.00
58955;BME280;45815;52.334;5.024;2022-11-28T05:18:09;100913.97;;;8.14;100.00
58955;BME280;45815;52.334;5.024;2022-11-28T05:20:36;100907.94;;;8.16;100.00
58955;BME280;45815;52.334;5.024;2022-11-28T05:23:02;100911.22;;;8.09;100.00
58955;BME280;45815;52.334;5.024;2022-11-28T05:25:28;100901.47;;;8.03;100.00
58955;BME280;45815;52.334;5.024;2022-11-28T05:27:53;100900.75;;;8.09;100.00
58955;BME280;45815;52.334;5.024;2022-11-28T05:30:18;100914.03;;;8.15;100.00
58955;BME280;45815;52.334;5.024;2022-11-28T05:32:44;100924.50;;;8.15;100.00
58955;BME280;45815;52.334;5.024;2022-11-28T05:35:09;100927.97;;;8.16;100.00
58955;BME280;45815;52.334;5.024;2022-11-28T05:37:35;100930.66;;;8.17;100.00
58955;BME280;45815;52.334;5.024;2022-11-28T05:40:02;100932.50;;;8.21;100.00
58955;BME280;45815;52.334;5.024;2022-11-28T05:42:31;100920.78;;;8.09;100.00
58955;BME280;45815;52.334;5.024;2022-11-28T05:44:57;100942.88;;;8.18;100.00
58955;BME280;45815;52.334;5.024;2022-11-28T05:47:22;100941.13;;;8.19;100.00
58955;BME280;45815;52.334;5.024;2022-11-28T05:49:49;100938.63;;;8.22;100.00
58955;BME280;45815;52.334;5.024;2022-11-28T05:52:14;100936.94;;;8.24;100.00
58955;BME280;45815;52.334;5.024;2022-11-28T05:54:40;100944.81;;;8.25;100.00
58955;BME280;45815;52.334;5.024;2022-11-28T05:57:05;100930.59;;;8.16;100.00
58955;BME280;45815;52.334;5.024;2022-11-28T05:59:31;100942.88;;;8.18;100.00
58955;BME280;45815;52.334;5.024;2022-11-28T06:01:57;100941.19;;;8.20;100.00
58955;BME280;45815;52.334;5.024;2022-11-28T06:04:23;100936.63;;;8.13;100.00
58955;BME280;45815;52.334;5.024;2022-11-28T06:06:49;100925.16;;;8.10;100.00
58955;BME280;45815;52.334;5.024;2022-11-28T06:09:14;100942.88;;;8.18;100.00
58955;BME280;45815;52.334;5.024;2022-11-28T06:11:40;100942.88;;;8.18;100.00
58955;BME280;45815;52.334;5.024;2022-11-28T06:14:05;100934.94;;;8.15;100.00
58955;BME280;45815;52.334;5.024;2022-11-28T06:16:30;100937.63;;;8.18;100.00
58955;BME280;45815;52.334;5.024;2022-11-28T06:18:58;100942.06;;;8.21;100.00
58955;BME280;45815;52.334;5.024;2022-11-28T06:21:25;100920.13;;;8.16;100.00
58955;BME280;45815;52.334;5.024;2022-11-28T06:23:51;100942.16;;;8.24;100.00
58955;BME280;45815;52.334;5.024;2022-11-28T06:26:18;100951.00;;;8.28;100.00
58955;BME280;45815;52.334;5.024;2022-11-28T06:28:44;100959.78;;;8.30;100.00
58955;BME280;45815;52.334;5.024;2022-11-28T06:31:16;100960.66;;;8.30;100.00
58955;BME280;45815;52.334;5.024;2022-11-28T06:33:42;100969.88;;;8.17;100.00
58955;BME280;45815;52.334;5.024;2022-11-28T06:36:08;100964.16;;;8.31;100.00
58955;BME280;45815;52.334;5.024;2022-11-28T06:38:33;100972.13;;;8.34;100.00
58955;BME280;45815;52.334;5.024;2022-11-28T06:41:04;100971.41;;;8.39;100.00
58955;BME280;45815;52.334;5.024;2022-11-28T06:43:30;100945.09;;;8.35;100.00
58955;BME280;45815;52.334;5.024;2022-11-28T06:45:56;100960.25;;;8.45;100.00
58955;BME280;45815;52.334;5.024;2022-11-28T06:48:22;100956.88;;;8.48;100.00
58955;BME280;45815;52.334;5.024;2022-11-28T06:50:48;100956.88;;;8.48;100.00
58955;BME280;45815;52.334;5.024;2022-11-28T06:53:14;100953.34;;;8.47;100.00
58955;BME280;45815;52.334;5.024;2022-11-28T06:55:39;100962.03;;;8.46;100.00
58955;BME280;45815;52.334;5.024;2022-11-28T06:58:05;100956.81;;;8.46;100.00
58955;BME280;45815;52.334;5.024;2022-11-28T07:00:31;100960.13;;;8.40;100.00
58955;BME280;45815;52.334;5.024;2022-11-28T07:02:57;100958.44;;;8.42;100.00
58955;BME280;45815;52.334;5.024;2022-11-28T07:05:23;100966.34;;;8.44;100.00
58955;BME280;45815;52.334;5.024;2022-11-28T07:07:52;100956.63;;;8.40;100.00
58955;BME280;45815;52.334;5.024;2022-11-28T07:10:18;100970.63;;;8.42;100.00
58955;BME280;45815;52.334;5.024;2022-11-28T07:12:44;100967.97;;;8.40;100.00
58955;BME280;45815;52.334;5.024;2022-11-28T07:15:09;100971.56;;;8.44;100.00
58955;BME280;45815;52.334;5.024;2022-11-28T07:17:35;100979.59;;;8.50;100.00
58955;BME280;45815;52.334;5.024;2022-11-28T07:20:01;100984.84;;;8.50;100.00
58955;BME280;45815;52.334;5.024;2022-11-28T07:22:26;100985.50;;;8.43;100.00
58955;BME280;45815;52.334;5.024;2022-11-28T07:24:51;100990.63;;;8.40;100.00
58955;BME280;45815;52.334;5.024;2022-11-28T07:27:17;100999.41;;;8.42;100.00
58955;BME280;45815;52.334;5.024;2022-11-28T07:29:43;100998.59;;;8.43;100.00
58955;BME280;45815;52.334;5.024;2022-11-28T07:32:08;100995.97;;;8.43;100.00
58955;BME280;45815;52.334;5.024;2022-11-28T07:34:34;100999.41;;;8.42;100.00
58955;BME280;45815;52.334;5.024;2022-11-28T07:36:59;101003.69;;;8.40;100.00
58955;BME280;45815;52.334;5.024;2022-11-28T07:39:25;101003.84;;;8.44;100.00
58955;BME280;45815;52.334;5.024;2022-11-28T07:41:50;101001.19;;;8.43;100.00
58955;BME280;45815;52.334;5.024;2022-11-28T07:44:16;101002.91;;;8.42;100.00
58955;BME280;45815;52.334;5.024;2022-11-28T07:46:43;101010.75;;;8.42;100.00
58955;BME280;45815;52.334;5.024;2022-11-28T07:49:10;101006.44;;;8.43;100.00
58955;BME280;45815;52.334;5.024;2022-11-28T07:51:36;101010.88;;;8.45;100.00
58955;BME280;45815;52.334;5.024;2022-11-28T07:54:02;101018.78;;;8.49;100.00
58955;BME280;45815;52.334;5.024;2022-11-28T07:56:30;101013.69;;;8.53;100.00
58955;BME280;45815;52.334;5.024;2022-11-28T07:58:58;101001.50;;;8.54;100.00
58955;BME280;45815;52.334;5.024;2022-11-28T08:01:26;101013.09;;;8.62;100.00
58955;BME280;45815;52.334;5.024;2022-11-28T08:03:52;101012.19;;;8.61;100.00
58955;BME280;45815;52.334;5.024;2022-11-28T08:06:22;101016.59;;;8.62;100.00
58955;BME280;45815;52.334;5.024;2022-11-28T08:08:48;101016.53;;;8.61;100.00
58955;BME280;45815;52.334;5.024;2022-11-28T08:11:15;101017.34;;;8.58;100.00
58955;BME280;45815;52.334;5.024;2022-11-28T08:13:41;101006.00;;;8.58;100.00
58955;BME280;45815;52.334;5.024;2022-11-28T08:16:11;101006.00;;;8.58;100.00
58955;BME280;45815;52.334;5.024;2022-11-28T08:18:37;101009.53;;;8.60;100.00
58955;BME280;45815;52.334;5.024;2022-11-28T08:21:11;101014.56;;;8.52;100.00
58955;BME280;45815;52.334;5.024;2022-11-28T08:23:38;101019.91;;;8.57;100.00
58955;BME280;45815;52.334;5.024;2022-11-28T08:26:06;101028.75;;;8.60;100.00
58955;BME280;45815;52.334;5.024;2022-11-28T08:28:31;101006.59;;;8.49;100.00
58955;BME280;45815;52.334;5.024;2022-11-28T08:30:57;101019.13;;;8.59;100.00
58955;BME280;45815;52.334;5.024;2022-11-28T08:33:24;101015.75;;;8.63;100.00
58955;BME280;45815;52.334;5.024;2022-11-28T08:35:50;101017.69;;;8.71;100.00
58955;BME280;45815;52.334;5.024;2022-11-28T08:38:16;101011.72;;;8.75;100.00
58955;BME280;45815;52.334;5.024;2022-11-28T08:40:42;101023.84;;;8.73;100.00
58955;BME280;45815;52.334;5.024;2022-11-28T08:43:07;101026.66;;;8.79;100.00
58955;BME280;45815;52.334;5.024;2022-11-28T08:45:37;101032.03;;;8.83;100.00
58955;BME280;45815;52.334;5.024;2022-11-28T08:48:03;101033.84;;;8.86;100.00
58955;BME280;45815;52.334;5.024;2022-11-28T08:50:28;101030.22;;;8.81;100.00
58955;BME280;45815;52.334;5.024;2022-11-28T08:52:54;101028.44;;;8.80;100.00
58955;BME280;45815;52.334;5.024;2022-11-28T08:55:20;101029.44;;;8.83;100.00
58955;BME280;45815;52.334;5.024;2022-11-28T08:57:45;101029.44;;;8.83;100.00
58955;BME280;45815;52.334;5.024;2022-11-28T09:00:11;101033.78;;;8.83;100.00
58955;BME280;45815;52.334;5.024;2022-11-28T09:02:37;101026.84;;;8.85;100.00
58955;BME280;45815;52.334;5.024;2022-11-28T09:05:03;101024.25;;;8.86;100.00
58955;BME280;45815;52.334;5.024;2022-11-28T09:07:28;101023.47;;;8.89;100.00
58955;BME280;45815;52.334;5.024;2022-11-28T09:09:54;101024.34;;;8.90;100.00
58955;BME280;45815;52.334;5.024;2022-11-28T09:12:19;101027.94;;;8.93;100.00
58955;BME280;45815;52.334;5.024;2022-11-28T09:14:44;101028.09;;;8.98;100.00
58955;BME280;45815;52.334;5.024;2022-11-28T09:17:10;101038.00;;;9.09;100.00
58955;BME280;45815;52.334;5.024;2022-11-28T09:19:35;101038.81;;;9.07;100.00
58955;BME280;45815;52.334;5.024;2022-11-28T09:22:01;101027.34;;;9.03;100.00
58955;BME280;45815;52.334;5.024;2022-11-28T09:24:26;101037.00;;;9.04;100.00
58955;BME280;45815;52.334;5.024;2022-11-28T09:26:51;101042.25;;;9.04;100.00
58955;BME280;45815;52.334;5.024;2022-11-28T09:29:17;101047.44;;;9.03;100.00
58955;BME280;45815;52.334;5.024;2022-11-28T09:31:42;101035.88;;;8.96;100.00
58955;BME280;45815;52.334;5.024;2022-11-28T09:34:07;101044.78;;;9.01;100.00
58955;BME280;45815;52.334;5.024;2022-11-28T09:36:33;101043.94;;;9.02;100.00
58955;BME280;45815;52.334;5.024;2022-11-28T09:39:00;101043.06;;;9.03;100.00
58955;BME280;45815;52.334;5.024;2022-11-28T09:44:25;101058.78;;;9.03;100.00
58955;BME280;45815;52.334;5.024;2022-11-28T09:47:02;101042.03;;;8.97;100.00
58955;BME280;45815;52.334;5.024;2022-11-28T09:49:33;101053.66;;;9.06;100.00
58955;BME280;45815;52.334;5.024;2022-11-28T09:57:51;101049.50;;;9.15;100.00
58955;BME280;45815;52.334;5.024;2022-11-28T10:00:35;101048.53;;;9.11;100.00
58955;BME280;45815;52.334;5.024;2022-11-28T10:05:46;101063.75;;;9.24;100.00
58955;BME280;45815;52.334;5.024;2022-11-28T10:08:30;101061.84;;;9.19;100.00
58955;BME280;45815;52.334;5.024;2022-11-28T10:11:04;101067.41;;;9.29;100.00
58955;BME280;45815;52.334;5.024;2022-11-28T10:13:53;101075.47;;;9.37;100.00
58955;BME280;45815;52.334;5.024;2022-11-28T10:19:27;101072.09;;;9.41;100.00
58955;BME280;45815;52.334;5.024;2022-11-28T10:21:57;101078.09;;;9.39;100.00
58955;BME280;45815;52.334;5.024;2022-11-28T10:24:40;101084.25;;;9.39;100.00
58955;BME280;45815;52.334;5.024;2022-11-28T10:27:11;101090.44;;;9.41;100.00
58955;BME280;45815;52.334;5.024;2022-11-28T10:32:19;101086.00;;;9.40;100.00
58955;BME280;45815;52.334;5.024;2022-11-28T10:35:08;101083.41;;;9.40;100.00
58955;BME280;45815;52.334;5.024;2022-11-28T10:37:37;101082.72;;;9.47;100.00
58955;BME280;45815;52.334;5.024;2022-11-28T10:43:01;101082.81;;;9.50;100.00
58955;BME280;45815;52.334;5.024;2022-11-28T10:45:43;101085.53;;;9.55;100.00
58955;BME280;45815;52.334;5.024;2022-11-28T10:56:32;101081.91;;;9.50;100.00
58955;BME280;45815;52.334;5.024;2022-11-28T11:01:38;101074.28;;;9.58;100.00
58955;BME280;45815;52.334;5.024;2022-11-28T11:04:10;101078.03;;;9.69;100.00
58955;BME280;45815;52.334;5.024;2022-11-28T11:06:38;101086.03;;;9.73;100.00
58955;BME280;45815;52.334;5.024;2022-11-28T11:09:04;101072.81;;;9.69;100.00
58955;BME280;45815;52.334;5.024;2022-11-28T11:11:33;101076.47;;;9.74;100.00
58955;BME280;45815;52.334;5.024;2022-11-28T11:14:04;101079.84;;;9.70;100.00
58955;BME280;45815;52.334;5.024;2022-11-28T11:19:37;101078.78;;;9.63;100.00
58955;BME280;45815;52.334;5.024;2022-11-28T11:24:35;101086.06;;;9.75;100.00
58955;BME280;45815;52.334;5.024;2022-11-28T11:27:06;101086.06;;;9.75;100.00
58955;BME280;45815;52.334;5.024;2022-11-28T11:29:39;101086.16;;;9.78;100.00
58955;BME280;45815;52.334;5.024;2022-11-28T11:32:08;101078.16;;;9.72;100.00
58955;BME280;45815;52.334;5.024;2022-11-28T11:34:43;101087.88;;;9.78;100.00
58955;BME280;45815;52.334;5.024;2022-11-28T11:37:33;101076.28;;;9.68;100.00
58955;BME280;45815;52.334;5.024;2022-11-28T11:40:00;101087.06;;;9.79;100.00
58955;BME280;45815;52.334;5.024;2022-11-28T11:42:27;101087.09;;;9.80;100.00
58955;BME280;45815;52.334;5.024;2022-11-28T11:44:53;101087.19;;;9.83;100.00
58955;BME280;45815;52.334;5.024;2022-11-28T11:47:38;101091.50;;;9.83;100.00
58955;BME280;45815;52.334;5.024;2022-11-28T11:50:05;101087.38;;;9.92;100.00
58955;BME280;45815;52.334;5.024;2022-11-28T11:52:30;101091.91;;;9.98;100.00
58955;BME280;45815;52.334;5.024;2022-11-28T11:57:32;101080.09;;;10.15;100.00
58955;BME280;45815;52.334;5.024;2022-11-28T12:00:06;101079.44;;;10.24;100.00
58955;BME280;45815;52.334;5.024;2022-11-28T12:02:42;101079.63;;;10.30;100.00
58955;BME280;45815;52.334;5.024;2022-11-28T12:05:29;101070.09;;;10.34;100.00
58955;BME280;45815;52.334;5.024;2022-11-28T12:10:49;101071.22;;;10.45;100.00
58955;BME280;45815;52.334;5.024;2022-11-28T12:13:20;101075.59;;;10.45;100.00
58955;BME280;45815;52.334;5.024;2022-11-28T12:15:59;101077.25;;;10.41;100.00
58955;BME280;45815;52.334;5.024;2022-11-28T12:21:25;101075.56;;;10.43;100.00
58955;BME280;45815;52.334;5.024;2022-11-28T12:24:08;101083.38;;;10.42;100.00
58955;BME280;45815;52.334;5.024;2022-11-28T12:26:51;101080.97;;;10.49;100.00
58955;BME280;45815;52.334;5.024;2022-11-28T12:32:15;101079.25;;;10.51;100.00
58955;BME280;45815;52.334;5.024;2022-11-28T12:37:50;101081.16;;;10.59;100.00
58955;BME280;45815;52.334;5.024;2022-11-28T12:49:00;101098.84;;;10.66;100.00
58955;BME280;45815;52.334;5.024;2022-11-28T12:56:39;101101.56;;;10.70;100.00
58955;BME280;45815;52.334;5.024;2022-11-28T12:59:17;101104.91;;;10.65;100.00
58955;BME280;45815;52.334;5.024;2022-11-28T13:10:00;101101.31;;;10.60;100.00
58955;BME280;45815;52.334;5.024;2022-11-28T13:12:43;101106.59;;;10.61;100.00
58955;BME280;45815;52.334;5.024;2022-11-28T13:15:38;101110.88;;;10.56;100.00
58955;BME280;45815;52.334;5.024;2022-11-28T13:20:58;101107.66;;;10.69;100.00
58955;BME280;45815;52.334;5.024;2022-11-28T13:23:49;101111.91;;;10.64;100.00
58955;BME280;45815;52.334;5.024;2022-11-28T13:29:23;101100.81;;;10.76;100.00
58955;BME280;45815;52.334;5.024;2022-11-28T13:32:11;101115.72;;;10.78;100.00
58955;BME280;45815;52.334;5.024;2022-11-28T13:34:42;101094.63;;;10.72;100.00
58955;BME280;45815;52.334;5.024;2022-11-28T13:37:15;101111.44;;;10.82;100.00
58955;BME280;45815;52.334;5.024;2022-11-28T13:39:53;101100.94;;;10.82;100.00
58955;BME280;45815;52.334;5.024;2022-11-28T13:42:35;101105.34;;;10.83;100.00
58955;BME280;45815;52.334;5.024;2022-11-28T13:45:05;101112.38;;;10.86;100.00
58955;BME280;45815;52.334;5.024;2022-11-28T13:47:43;101107.97;;;10.83;100.00
58955;BME280;45815;52.334;5.024;2022-11-28T13:55:47;101123.59;;;10.78;100.00
58955;BME280;45815;52.334;5.024;2022-11-28T13:58:21;101120.16;;;10.81;100.00
58955;BME280;45815;52.334;5.024;2022-11-28T14:01:20;101120.88;;;10.72;100.00
58955;BME280;45815;52.334;5.024;2022-11-28T14:03:49;101124.44;;;10.76;100.00
58955;BME280;45815;52.334;5.024;2022-11-28T14:06:20;101131.47;;;10.78;100.00
58955;BME280;45815;52.334;5.024;2022-11-28T14:08:48;101140.22;;;10.77;100.00
58955;BME280;45815;52.334;5.024;2022-11-28T14:11:38;101137.50;;;10.73;100.00
58955;BME280;45815;52.334;5.024;2022-11-28T14:20:29;101147.34;;;10.82;100.00
58955;BME280;45815;52.334;5.024;2022-11-28T14:25:43;101139.50;;;10.85;100.00
58955;BME280;45815;52.334;5.024;2022-11-28T14:28:34;101139.25;;;10.74;100.00
58955;BME280;45815;52.334;5.024;2022-11-28T14:33:37;101152.28;;;10.69;100.00
58955;BME280;45815;52.334;5.024;2022-11-28T14:36:24;101148.66;;;10.64;100.00
58955;BME280;45815;52.334;5.024;2022-11-28T14:44:46;101148.56;;;10.60;100.00
58955;BME280;45815;52.334;5.024;2022-11-28T14:49:47;101132.75;;;10.56;100.00
58955;BME280;45815;52.334;5.024;2022-11-28T14:52:16;101149.47;;;10.62;100.00
58955;BME280;45815;52.334;5.024;2022-11-28T14:54:44;101149.47;;;10.62;100.00
58955;BME280;45815;52.334;5.024;2022-11-28T14:59:43;101148.59;;;10.61;100.00
58955;BME280;45815;52.334;5.024;2022-11-28T15:12:32;101172.69;;;10.45;100.00
58955;BME280;45815;52.334;5.024;2022-11-28T15:15:03;101163.13;;;10.47;100.00
58955;BME280;45815;52.334;5.024;2022-11-28T15:17:32;101165.66;;;10.44;100.00
58955;BME280;45815;52.334;5.024;2022-11-28T15:20:03;101166.47;;;10.40;100.00
58955;BME280;45815;52.334;5.024;2022-11-28T15:22:39;101164.53;;;10.32;100.00
58955;BME280;45815;52.334;5.024;2022-11-28T15:25:22;101172.13;;;10.23;100.00
58955;BME280;45815;52.334;5.024;2022-11-28T15:27:49;101178.44;;;10.30;100.00
58955;BME280;45815;52.334;5.024;2022-11-28T15:30:17;101174.97;;;10.31;100.00
58955;BME280;45815;52.334;5.024;2022-11-28T15:32:45;101185.31;;;10.26;100.00
58955;BME280;45815;52.334;5.024;2022-11-28T15:35:16;101189.47;;;10.18;100.00
58955;BME280;45815;52.334;5.024;2022-11-28T15:37:48;101192.88;;;10.14;100.00
58955;BME280;45815;52.334;5.024;2022-11-28T15:40:18;101191.94;;;10.12;100.00
58955;BME280;45815;52.334;5.024;2022-11-28T15:42:47;101198.88;;;10.10;100.00
58955;BME280;45815;52.334;5.024;2022-11-28T15:45:25;101190.75;;;10.01;100.00
58955;BME280;45815;52.334;5.024;2022-11-28T15:47:58;101203.88;;;10.01;100.00
58955;BME280;45815;52.334;5.024;2022-11-28T15:50:28;101202.94;;;9.99;100.00
58955;BME280;45815;52.334;5.024;2022-11-28T15:53:03;101192.19;;;9.89;100.00
58955;BME280;45815;52.334;5.024;2022-11-28T15:55:38;101204.47;;;9.90;100.00
58955;BME280;45815;52.334;5.024;2022-11-28T15:58:21;101221.03;;;9.89;100.00